< Typhoon 199724 1997 Season Typhoon 199726 >
Typhoon 199725 (KEITH)
General InformationTrack Information on Google MapsDetailed Wind InformationList of All Images || Disaster Info.ResourceGoogle EarthGE AnimationAtom FeedGeoJSON
Detalied Best Track (Time Zone = UTC)
Year Month Day Hour Lat. Long. Pressure (hPa) Wind (kt) Class Image Chart
1997 10 26 06 6.7 168.7 1006 0 2 Image Chart
1997 10 26 12 6.8 168.7 1006 0 2 Image Chart
1997 10 26 18 7.0 168.7 1004 0 2 Image Chart
1997 10 27 00 7.3 168.5 1004 0 2 Image Chart
1997 10 27 06 7.4 168.3 1004 0 2 Image Chart
1997 10 27 12 7.4 167.9 1004 0 2 Image Chart
1997 10 27 18 7.5 167.4 1004 0 2 Image Chart
1997 10 28 00 7.5 166.5 1002 0 2 Image Chart
1997 10 28 06 7.3 165.9 1000 0 2 Image Chart
1997 10 28 12 7.0 165.4 998 0 2 Image Chart
1997 10 28 18 6.7 165.0 998 0 2 Image Chart
1997 10 29 00 6.6 164.4 998 0 2 Image Chart
1997 10 29 06 6.7 163.8 996 0 2 Image Chart
1997 10 29 12 6.8 163.2 994 40 3 Image Chart
1997 10 29 18 7.3 162.5 994 40 3 Image Chart
1997 10 30 00 7.8 161.5 994 40 3 Image Chart
1997 10 30 06 8.1 160.7 992 45 3 Image Chart
1997 10 30 12 8.4 159.8 985 50 4 Image Chart
1997 10 30 18 8.6 158.8 980 55 4 Image Chart
1997 10 31 00 8.9 157.7 970 65 5 Image Chart
1997 10 31 06 9.2 156.8 965 70 5 Image Chart
1997 10 31 12 9.9 155.9 960 75 5 Image Chart
1997 10 31 18 10.7 154.7 955 75 5 Image Chart
1997 11 1 00 11.3 153.2 945 80 5 Image Chart
1997 11 1 06 12.0 151.8 935 90 5 Image Chart
1997 11 1 12 12.7 150.3 925 100 5 Image Chart
1997 11 1 18 13.3 148.9 920 100 5 Image Chart
1997 11 2 00 14.0 147.3 915 110 5 Image Chart
1997 11 2 06 14.4 145.7 915 110 5 Image Chart
1997 11 2 12 14.8 144.4 910 110 5 Image Chart
1997 11 2 18 15.2 143.2 910 110 5 Image Chart
1997 11 3 00 15.4 142.0 910 110 5 Image Chart
1997 11 3 06 15.7 140.6 910 110 5 Image Chart
1997 11 3 12 15.8 139.3 920 100 5 Image Chart
1997 11 3 18 15.9 138.2 930 95 5 Image Chart
1997 11 4 00 16.1 137.2 935 90 5 Image Chart
1997 11 4 06 16.5 136.4 935 90 5 Image Chart
1997 11 4 12 16.9 135.7 935 90 5 Image Chart
1997 11 4 18 17.4 135.3 935 90 5 Image Chart
1997 11 5 00 17.8 135.0 935 90 5 Image Chart
1997 11 5 06 18.3 135.1 940 85 5 Image Chart
1997 11 5 12 18.9 135.4 945 85 5 Image Chart
1997 11 5 18 19.7 135.8 950 80 5 Image Chart
1997 11 6 00 20.3 136.3 960 70 5 Image Chart
1997 11 6 06 21.3 136.8 965 70 5 Image Chart
1997 11 6 12 22.2 137.6 965 70 5 Image Chart
1997 11 6 18 23.1 138.5 965 70 5 Image Chart
1997 11 7 00 24.2 139.7 965 70 5 Image Chart
1997 11 7 03 24.8 140.4 965 70 5 Image Chart
1997 11 7 06 25.5 141.3 965 70 5 Image Chart
1997 11 7 09 26.2 142.3 965 70 5 Image Chart
1997 11 7 12 26.7 143.5 965 70 5 Image Chart
1997 11 7 15 27.3 144.7 970 65 5 Image Chart
1997 11 7 18 27.8 145.8 970 65 5 Image Chart
1997 11 8 00 28.6 148.3 980 60 4 Image Chart
1997 11 8 03 29.2 149.9 986 0 6 Image Chart
1997 11 8 06 30.0 152.0 992 0 6 Image Chart
1997 11 8 12 31.9 157.3 992 0 6 Image Chart
1997 11 8 18 33.8 162.0 992 0 6 Image Chart
1997 11 9 00 35.2 164.7 996 0 6 Image Chart
1997 11 9 06 35.7 167.1 1000 0 6 Image Chart
Japan Meteorological Agency Best Track Data | Correction Date : 1998-01-19
< Typhoon 199724 1997 Season Typhoon 199726 >

Help